sensor_id;sensor_type;location;lat;lon;timestamp;P1;P2;P0
49064;PMS5003;34876;51.464;-0.150;2022-12-11T00:01:14;16;16;
49064;PMS5003;34876;51.464;-0.150;2022-12-11T00:03:44;24;23;
49064;PMS5003;34876;51.464;-0.150;2022-12-11T00:06:15;26;20;
49064;PMS5003;34876;51.464;-0.150;2022-12-11T00:08:46;24;22;
49064;PMS5003;34876;51.464;-0.150;2022-12-11T00:11:18;21;20;
49064;PMS5003;34876;51.464;-0.150;2022-12-11T00:13:48;21;20;
49064;PMS5003;34876;51.464;-0.150;2022-12-11T00:16:18;19;18;
49064;PMS5003;34876;51.464;-0.150;2022-12-11T00:18:47;20;19;
49064;PMS5003;34876;51.464;-0.150;2022-12-11T00:21:16;18;18;
49064;PMS5003;34876;51.464;-0.150;2022-12-11T00:23:44;24;22;
49064;PMS5003;34876;51.464;-0.150;2022-12-11T00:26:14;18;17;
49064;PMS5003;34876;51.464;-0.150;2022-12-11T00:28:44;20;19;
49064;PMS5003;34876;51.464;-0.150;2022-12-11T00:31:14;19;19;
49064;PMS5003;34876;51.464;-0.150;2022-12-11T00:33:45;21;20;
49064;PMS5003;34876;51.464;-0.150;2022-12-11T00:36:16;18;17;
49064;PMS5003;34876;51.464;-0.150;2022-12-11T00:38:47;18;18;
49064;PMS5003;34876;51.464;-0.150;2022-12-11T00:41:17;21;19;
49064;PMS5003;34876;51.464;-0.150;2022-12-11T00:43:46;20;17;
49064;PMS5003;34876;51.464;-0.150;2022-12-11T00:46:16;21;18;
49064;PMS5003;34876;51.464;-0.150;2022-12-11T00:48:44;20;20;
49064;PMS5003;34876;51.464;-0.150;2022-12-11T00:51:14;22;21;
49064;PMS5003;34876;51.464;-0.150;2022-12-11T00:53:43;19;18;
49064;PMS5003;34876;51.464;-0.150;2022-12-11T00:56:13;20;17;
49064;PMS5003;34876;51.464;-0.150;2022-12-11T00:58:44;21;21;
49064;PMS5003;34876;51.464;-0.150;2022-12-11T01:03:17;60;57;
49064;PMS5003;34876;51.464;-0.150;2022-12-11T01:05:53;59;54;
49064;PMS5003;34876;51.464;-0.150;2022-12-11T01:08:22;61;60;
49064;PMS5003;34876;51.464;-0.150;2022-12-11T01:10:57;54;51;
49064;PMS5003;34876;51.464;-0.150;2022-12-11T01:13:29;61;60;
49064;PMS5003;34876;51.464;-0.150;2022-12-11T01:15:59;61;57;
49064;PMS5003;34876;51.464;-0.150;2022-12-11T01:18:33;62;57;
49064;PMS5003;34876;51.464;-0.150;2022-12-11T01:21:09;58;54;
49064;PMS5003;34876;51.464;-0.150;2022-12-11T01:23:40;61;54;
49064;PMS5003;34876;51.464;-0.150;2022-12-11T01:26:10;57;56;
49064;PMS5003;34876;51.464;-0.150;2022-12-11T01:28:41;55;53;
49064;PMS5003;34876;51.464;-0.150;2022-12-11T01:31:11;61;58;
49064;PMS5003;34876;51.464;-0.150;2022-12-11T01:33:41;62;61;
49064;PMS5003;34876;51.464;-0.150;2022-12-11T01:36:11;61;59;
49064;PMS5003;34876;51.464;-0.150;2022-12-11T01:38:43;65;61;
49064;PMS5003;34876;51.464;-0.150;2022-12-11T01:41:18;61;58;
49064;PMS5003;34876;51.464;-0.150;2022-12-11T01:43:56;63;62;
49064;PMS5003;34876;51.464;-0.150;2022-12-11T01:46:27;63;59;
49064;PMS5003;34876;51.464;-0.150;2022-12-11T01:48:57;68;62;
49064;PMS5003;34876;51.464;-0.150;2022-12-11T01:51:29;63;61;
49064;PMS5003;34876;51.464;-0.150;2022-12-11T01:54:02;66;60;
49064;PMS5003;34876;51.464;-0.150;2022-12-11T01:56:35;64;60;
49064;PMS5003;34876;51.464;-0.150;2022-12-11T01:59:05;60;58;
49064;PMS5003;34876;51.464;-0.150;2022-12-11T02:01:37;70;59;
49064;PMS5003;34876;51.464;-0.150;2022-12-11T02:04:09;75;66;
49064;PMS5003;34876;51.464;-0.150;2022-12-11T02:06:41;59;58;
49064;PMS5003;34876;51.464;-0.150;2022-12-11T02:09:11;58;57;
49064;PMS5003;34876;51.464;-0.150;2022-12-11T02:11:46;65;61;
49064;PMS5003;34876;51.464;-0.150;2022-12-11T02:14:26;65;57;
49064;PMS5003;34876;51.464;-0.150;2022-12-11T02:17:03;64;60;
49064;PMS5003;34876;51.464;-0.150;2022-12-11T02:19:44;64;60;
49064;PMS5003;34876;51.464;-0.150;2022-12-11T02:22:26;59;55;
49064;PMS5003;34876;51.464;-0.150;2022-12-11T02:25:09;58;55;
49064;PMS5003;34876;51.464;-0.150;2022-12-11T02:27:49;62;53;
49064;PMS5003;34876;51.464;-0.150;2022-12-11T02:30:21;59;57;
49064;PMS5003;34876;51.464;-0.150;2022-12-11T02:32:52;54;52;
49064;PMS5003;34876;51.464;-0.150;2022-12-11T02:35:23;60;56;
49064;PMS5003;34876;51.464;-0.150;2022-12-11T02:37:58;58;54;
49064;PMS5003;34876;51.464;-0.150;2022-12-11T02:40:31;61;57;
49064;PMS5003;34876;51.464;-0.150;2022-12-11T02:43:05;53;53;
49064;PMS5003;34876;51.464;-0.150;2022-12-11T02:45:38;63;60;
49064;PMS5003;34876;51.464;-0.150;2022-12-11T02:48:09;57;51;
49064;PMS5003;34876;51.464;-0.150;2022-12-11T02:50:41;55;54;
49064;PMS5003;34876;51.464;-0.150;2022-12-11T02:53:15;62;57;
49064;PMS5003;34876;51.464;-0.150;2022-12-11T02:55:49;56;51;
49064;PMS5003;34876;51.464;-0.150;2022-12-11T02:58:25;61;57;
49064;PMS5003;34876;51.464;-0.150;2022-12-11T03:00:58;57;53;
49064;PMS5003;34876;51.464;-0.150;2022-12-11T03:03:27;59;55;
49064;PMS5003;34876;51.464;-0.150;2022-12-11T03:05:58;61;59;
49064;PMS5003;34876;51.464;-0.150;2022-12-11T03:08:28;58;57;
49064;PMS5003;34876;51.464;-0.150;2022-12-11T03:10:57;59;56;
49064;PMS5003;34876;51.464;-0.150;2022-12-11T03:13:27;53;53;
49064;PMS5003;34876;51.464;-0.150;2022-12-11T03:15:59;53;50;
49064;PMS5003;34876;51.464;-0.150;2022-12-11T03:18:39;54;51;
49064;PMS5003;34876;51.464;-0.150;2022-12-11T03:21:17;59;54;
49064;PMS5003;34876;51.464;-0.150;2022-12-11T03:23:53;57;56;
49064;PMS5003;34876;51.464;-0.150;2022-12-11T03:26:29;54;51;
49064;PMS5003;34876;51.464;-0.150;2022-12-11T03:29:04;62;60;
49064;PMS5003;34876;51.464;-0.150;2022-12-11T03:31:42;57;53;
49064;PMS5003;34876;51.464;-0.150;2022-12-11T03:34:15;55;52;
49064;PMS5003;34876;51.464;-0.150;2022-12-11T03:36:48;56;54;
49064;PMS5003;34876;51.464;-0.150;2022-12-11T03:39:21;54;50;
49064;PMS5003;34876;51.464;-0.150;2022-12-11T03:41:54;56;56;
49064;PMS5003;34876;51.464;-0.150;2022-12-11T03:44:25;64;58;
49064;PMS5003;34876;51.464;-0.150;2022-12-11T03:46:56;60;56;
49064;PMS5003;34876;51.464;-0.150;2022-12-11T03:49:28;63;59;
49064;PMS5003;34876;51.464;-0.150;2022-12-11T03:52:01;58;56;
49064;PMS5003;34876;51.464;-0.150;2022-12-11T03:54:32;61;56;
49064;PMS5003;34876;51.464;-0.150;2022-12-11T03:57:03;61;56;
49064;PMS5003;34876;51.464;-0.150;2022-12-11T03:59:34;60;58;
49064;PMS5003;34876;51.464;-0.150;2022-12-11T04:02:03;59;56;
49064;PMS5003;34876;51.464;-0.150;2022-12-11T04:04:32;56;54;
49064;PMS5003;34876;51.464;-0.150;2022-12-11T04:07:01;58;56;
49064;PMS5003;34876;51.464;-0.150;2022-12-11T04:09:30;60;57;
49064;PMS5003;34876;51.464;-0.150;2022-12-11T04:12:01;65;58;
49064;PMS5003;34876;51.464;-0.150;2022-12-11T04:14:31;65;57;
49064;PMS5003;34876;51.464;-0.150;2022-12-11T04:17:00;59;57;
49064;PMS5003;34876;51.464;-0.150;2022-12-11T04:19:29;54;54;
49064;PMS5003;34876;51.464;-0.150;2022-12-11T04:22:00;56;52;
49064;PMS5003;34876;51.464;-0.150;2022-12-11T04:24:29;55;50;
49064;PMS5003;34876;51.464;-0.150;2022-12-11T04:27:03;62;58;
49064;PMS5003;34876;51.464;-0.150;2022-12-11T04:29:33;59;56;
49064;PMS5003;34876;51.464;-0.150;2022-12-11T04:32:03;65;61;
49064;PMS5003;34876;51.464;-0.150;2022-12-11T04:34:33;60;58;
49064;PMS5003;34876;51.464;-0.150;2022-12-11T04:37:01;60;56;
49064;PMS5003;34876;51.464;-0.150;2022-12-11T04:39:30;65;58;
49064;PMS5003;34876;51.464;-0.150;2022-12-11T04:41:59;60;57;
49064;PMS5003;34876;51.464;-0.150;2022-12-11T04:44:27;62;61;
49064;PMS5003;34876;51.464;-0.150;2022-12-11T04:46:56;56;54;
49064;PMS5003;34876;51.464;-0.150;2022-12-11T04:49:28;58;56;
49064;PMS5003;34876;51.464;-0.150;2022-12-11T04:51:58;66;59;
49064;PMS5003;34876;51.464;-0.150;2022-12-11T04:54:27;54;53;
49064;PMS5003;34876;51.464;-0.150;2022-12-11T04:56:57;56;53;
49064;PMS5003;34876;51.464;-0.150;2022-12-11T04:59:27;57;55;
49064;PMS5003;34876;51.464;-0.150;2022-12-11T05:01:55;59;57;
49064;PMS5003;34876;51.464;-0.150;2022-12-11T05:04:24;60;58;
49064;PMS5003;34876;51.464;-0.150;2022-12-11T05:06:53;59;52;
49064;PMS5003;34876;51.464;-0.150;2022-12-11T05:09:22;59;56;
49064;PMS5003;34876;51.464;-0.150;2022-12-11T05:11:51;57;55;
49064;PMS5003;34876;51.464;-0.150;2022-12-11T05:14:21;57;55;
49064;PMS5003;34876;51.464;-0.150;2022-12-11T05:16:50;64;57;
49064;PMS5003;34876;51.464;-0.150;2022-12-11T05:19:20;61;55;
49064;PMS5003;34876;51.464;-0.150;2022-12-11T05:21:49;55;55;
49064;PMS5003;34876;51.464;-0.150;2022-12-11T05:24:18;59;56;
49064;PMS5003;34876;51.464;-0.150;2022-12-11T05:26:47;61;57;
49064;PMS5003;34876;51.464;-0.150;2022-12-11T05:29:15;64;61;
49064;PMS5003;34876;51.464;-0.150;2022-12-11T05:31:44;59;53;
49064;PMS5003;34876;51.464;-0.150;2022-12-11T05:34:13;56;55;
49064;PMS5003;34876;51.464;-0.150;2022-12-11T05:36:43;55;52;
49064;PMS5003;34876;51.464;-0.150;2022-12-11T05:39:12;58;54;
49064;PMS5003;34876;51.464;-0.150;2022-12-11T05:41:40;56;51;
49064;PMS5003;34876;51.464;-0.150;2022-12-11T05:44:10;52;49;
49064;PMS5003;34876;51.464;-0.150;2022-12-11T05:46:40;62;56;
49064;PMS5003;34876;51.464;-0.150;2022-12-11T05:49:10;56;51;
49064;PMS5003;34876;51.464;-0.150;2022-12-11T05:51:39;53;52;
49064;PMS5003;34876;51.464;-0.150;2022-12-11T05:54:09;58;52;
49064;PMS5003;34876;51.464;-0.150;2022-12-11T05:56:38;58;50;
49064;PMS5003;34876;51.464;-0.150;2022-12-11T05:59:08;53;51;
49064;PMS5003;34876;51.464;-0.150;2022-12-11T06:01:39;55;54;
49064;PMS5003;34876;51.464;-0.150;2022-12-11T06:04:11;56;54;
49064;PMS5003;34876;51.464;-0.150;2022-12-11T06:06:39;57;53;
49064;PMS5003;34876;51.464;-0.150;2022-12-11T06:09:10;57;54;
49064;PMS5003;34876;51.464;-0.150;2022-12-11T06:11:41;55;54;
49064;PMS5003;34876;51.464;-0.150;2022-12-11T06:14:10;54;50;
49064;PMS5003;34876;51.464;-0.150;2022-12-11T06:16:39;54;50;
49064;PMS5003;34876;51.464;-0.150;2022-12-11T06:19:11;58;56;
49064;PMS5003;34876;51.464;-0.150;2022-12-11T06:21:40;51;48;
49064;PMS5003;34876;51.464;-0.150;2022-12-11T06:24:10;50;48;
49064;PMS5003;34876;51.464;-0.150;2022-12-11T06:26:39;52;50;
49064;PMS5003;34876;51.464;-0.150;2022-12-11T06:29:08;55;55;
49064;PMS5003;34876;51.464;-0.150;2022-12-11T06:31:37;51;47;
49064;PMS5003;34876;51.464;-0.150;2022-12-11T06:34:07;47;47;
49064;PMS5003;34876;51.464;-0.150;2022-12-11T06:36:36;62;54;
49064;PMS5003;34876;51.464;-0.150;2022-12-11T06:39:05;56;52;
49064;PMS5003;34876;51.464;-0.150;2022-12-11T06:41:34;50;49;
49064;PMS5003;34876;51.464;-0.150;2022-12-11T06:44:03;53;50;
49064;PMS5003;34876;51.464;-0.150;2022-12-11T06:46:32;58;55;
49064;PMS5003;34876;51.464;-0.150;2022-12-11T06:49:01;52;50;
49064;PMS5003;34876;51.464;-0.150;2022-12-11T06:51:30;49;48;
49064;PMS5003;34876;51.464;-0.150;2022-12-11T06:53:59;54;49;
49064;PMS5003;34876;51.464;-0.150;2022-12-11T06:56:28;53;50;
49064;PMS5003;34876;51.464;-0.150;2022-12-11T06:58:57;52;49;
49064;PMS5003;34876;51.464;-0.150;2022-12-11T07:01:26;55;55;
49064;PMS5003;34876;51.464;-0.150;2022-12-11T07:03:57;51;49;
49064;PMS5003;34876;51.464;-0.150;2022-12-11T07:06:27;52;48;
49064;PMS5003;34876;51.464;-0.150;2022-12-11T07:08:57;51;51;
49064;PMS5003;34876;51.464;-0.150;2022-12-11T07:11:25;50;46;
49064;PMS5003;34876;51.464;-0.150;2022-12-11T07:13:56;53;53;
49064;PMS5003;34876;51.464;-0.150;2022-12-11T07:16:25;48;45;
49064;PMS5003;34876;51.464;-0.150;2022-12-11T07:18:54;54;50;
49064;PMS5003;34876;51.464;-0.150;2022-12-11T07:21:23;54;50;
49064;PMS5003;34876;51.464;-0.150;2022-12-11T07:23:52;54;48;
49064;PMS5003;34876;51.464;-0.150;2022-12-11T07:26:21;57;49;
49064;PMS5003;34876;51.464;-0.150;2022-12-11T07:28:50;49;48;
49064;PMS5003;34876;51.464;-0.150;2022-12-11T07:31:22;48;48;
49064;PMS5003;34876;51.464;-0.150;2022-12-11T07:33:52;52;52;
49064;PMS5003;34876;51.464;-0.150;2022-12-11T07:36:22;46;44;
49064;PMS5003;34876;51.464;-0.150;2022-12-11T07:38:52;49;47;
49064;PMS5003;34876;51.464;-0.150;2022-12-11T07:41:22;57;53;
49064;PMS5003;34876;51.464;-0.150;2022-12-11T07:43:51;56;54;
49064;PMS5003;34876;51.464;-0.150;2022-12-11T07:46:21;52;52;
49064;PMS5003;34876;51.464;-0.150;2022-12-11T07:48:52;52;52;
49064;PMS5003;34876;51.464;-0.150;2022-12-11T07:51:22;53;50;
49064;PMS5003;34876;51.464;-0.150;2022-12-11T07:53:53;53;50;
49064;PMS5003;34876;51.464;-0.150;2022-12-11T07:56:23;51;49;
49064;PMS5003;34876;51.464;-0.150;2022-12-11T07:58:53;56;52;
49064;PMS5003;34876;51.464;-0.150;2022-12-11T08:01:22;53;51;
49064;PMS5003;34876;51.464;-0.150;2022-12-11T08:03:53;55;53;
49064;PMS5003;34876;51.464;-0.150;2022-12-11T08:06:24;51;47;
49064;PMS5003;34876;51.464;-0.150;2022-12-11T08:08:54;58;52;
49064;PMS5003;34876;51.464;-0.150;2022-12-11T08:11:24;55;50;
49064;PMS5003;34876;51.464;-0.150;2022-12-11T08:13:53;57;50;
49064;PMS5003;34876;51.464;-0.150;2022-12-11T08:16:26;52;49;
49064;PMS5003;34876;51.464;-0.150;2022-12-11T08:18:57;57;52;
49064;PMS5003;34876;51.464;-0.150;2022-12-11T08:21:25;52;49;
49064;PMS5003;34876;51.464;-0.150;2022-12-11T08:23:55;51;44;
49064;PMS5003;34876;51.464;-0.150;2022-12-11T08:26:25;51;49;
49064;PMS5003;34876;51.464;-0.150;2022-12-11T08:28:57;52;47;
49064;PMS5003;34876;51.464;-0.150;2022-12-11T08:31:27;51;47;
49064;PMS5003;34876;51.464;-0.150;2022-12-11T08:33:56;53;51;
49064;PMS5003;34876;51.464;-0.150;2022-12-11T08:36:25;54;49;
49064;PMS5003;34876;51.464;-0.150;2022-12-11T08:38:54;56;54;
49064;PMS5003;34876;51.464;-0.150;2022-12-11T08:41:24;52;49;
49064;PMS5003;34876;51.464;-0.150;2022-12-11T08:43:54;51;49;
49064;PMS5003;34876;51.464;-0.150;2022-12-11T08:46:25;52;51;
49064;PMS5003;34876;51.464;-0.150;2022-12-11T08:48:57;52;48;
49064;PMS5003;34876;51.464;-0.150;2022-12-11T08:51:27;56;49;
49064;PMS5003;34876;51.464;-0.150;2022-12-11T08:53:58;53;49;
49064;PMS5003;34876;51.464;-0.150;2022-12-11T08:56:29;55;49;
49064;PMS5003;34876;51.464;-0.150;2022-12-11T08:58:59;50;48;
49064;PMS5003;34876;51.464;-0.150;2022-12-11T09:01:28;55;54;
49064;PMS5003;34876;51.464;-0.150;2022-12-11T09:03:57;55;53;
49064;PMS5003;34876;51.464;-0.150;2022-12-11T09:06:27;54;50;
49064;PMS5003;34876;51.464;-0.150;2022-12-11T09:08:57;53;49;
49064;PMS5003;34876;51.464;-0.150;2022-12-11T09:11:29;50;47;
49064;PMS5003;34876;51.464;-0.150;2022-12-11T09:14:00;54;49;
49064;PMS5003;34876;51.464;-0.150;2022-12-11T09:16:29;60;53;
49064;PMS5003;34876;51.464;-0.150;2022-12-11T09:18:58;50;49;
49064;PMS5003;34876;51.464;-0.150;2022-12-11T09:21:28;48;48;
49064;PMS5003;34876;51.464;-0.150;2022-12-11T09:23:59;49;47;
49064;PMS5003;34876;51.464;-0.150;2022-12-11T09:26:28;54;51;
49064;PMS5003;34876;51.464;-0.150;2022-12-11T09:28:58;46;46;
49064;PMS5003;34876;51.464;-0.150;2022-12-11T09:31:29;54;49;
49064;PMS5003;34876;51.464;-0.150;2022-12-11T09:34:02;59;53;
49064;PMS5003;34876;51.464;-0.150;2022-12-11T09:36:33;55;50;
49064;PMS5003;34876;51.464;-0.150;2022-12-11T09:39:03;47;46;
49064;PMS5003;34876;51.464;-0.150;2022-12-11T09:41:35;50;48;
49064;PMS5003;34876;51.464;-0.150;2022-12-11T09:44:14;48;47;
49064;PMS5003;34876;51.464;-0.150;2022-12-11T09:47:02;50;47;
49064;PMS5003;34876;51.464;-0.150;2022-12-11T09:49:43;53;49;
49064;PMS5003;34876;51.464;-0.150;2022-12-11T09:52:16;49;47;
49064;PMS5003;34876;51.464;-0.150;2022-12-11T09:54:49;51;50;
49064;PMS5003;34876;51.464;-0.150;2022-12-11T09:57:27;54;49;
49064;PMS5003;34876;51.464;-0.150;2022-12-11T10:00:13;46;45;
49064;PMS5003;34876;51.464;-0.150;2022-12-11T10:02:55;47;45;
49064;PMS5003;34876;51.464;-0.150;2022-12-11T10:05:35;54;51;
49064;PMS5003;34876;51.464;-0.150;2022-12-11T10:08:11;44;43;
49064;PMS5003;34876;51.464;-0.150;2022-12-11T10:10:49;46;44;
49064;PMS5003;34876;51.464;-0.150;2022-12-11T10:13:32;50;50;
49064;PMS5003;34876;51.464;-0.150;2022-12-11T10:16:11;46;45;
49064;PMS5003;34876;51.464;-0.150;2022-12-11T10:18:47;55;49;
49064;PMS5003;34876;51.464;-0.150;2022-12-11T10:21:16;49;47;
49064;PMS5003;34876;51.464;-0.150;2022-12-11T10:23:49;49;45;
49064;PMS5003;34876;51.464;-0.150;2022-12-11T10:26:22;43;41;
49064;PMS5003;34876;51.464;-0.150;2022-12-11T10:28:51;44;42;
49064;PMS5003;34876;51.464;-0.150;2022-12-11T10:31:23;46;45;
49064;PMS5003;34876;51.464;-0.150;2022-12-11T10:34:02;47;44;
49064;PMS5003;34876;51.464;-0.150;2022-12-11T10:36:37;44;44;
49064;PMS5003;34876;51.464;-0.150;2022-12-11T10:39:10;46;44;
49064;PMS5003;34876;51.464;-0.150;2022-12-11T10:41:43;45;44;
49064;PMS5003;34876;51.464;-0.150;2022-12-11T10:44:14;48;47;
49064;PMS5003;34876;51.464;-0.150;2022-12-11T10:46:45;45;42;
49064;PMS5003;34876;51.464;-0.150;2022-12-11T10:49:23;52;47;
49064;PMS5003;34876;51.464;-0.150;2022-12-11T10:51:53;44;42;
49064;PMS5003;34876;51.464;-0.150;2022-12-11T10:54:32;44;44;
49064;PMS5003;34876;51.464;-0.150;2022-12-11T10:57:03;46;43;
49064;PMS5003;34876;51.464;-0.150;2022-12-11T10:59:35;42;42;
49064;PMS5003;34876;51.464;-0.150;2022-12-11T11:02:13;43;42;
49064;PMS5003;34876;51.464;-0.150;2022-12-11T11:04:49;55;53;
49064;PMS5003;34876;51.464;-0.150;2022-12-11T11:07:20;45;43;
49064;PMS5003;34876;51.464;-0.150;2022-12-11T11:09:59;44;41;
49064;PMS5003;34876;51.464;-0.150;2022-12-11T11:12:42;50;44;
49064;PMS5003;34876;51.464;-0.150;2022-12-11T11:15:14;45;40;
49064;PMS5003;34876;51.464;-0.150;2022-12-11T11:17:46;36;36;
49064;PMS5003;34876;51.464;-0.150;2022-12-11T11:20:19;40;38;
49064;PMS5003;34876;51.464;-0.150;2022-12-11T11:22:51;45;43;
49064;PMS5003;34876;51.464;-0.150;2022-12-11T11:25:22;45;43;
49064;PMS5003;34876;51.464;-0.150;2022-12-11T11:27:54;44;43;
49064;PMS5003;34876;51.464;-0.150;2022-12-11T11:30:26;40;37;
49064;PMS5003;34876;51.464;-0.150;2022-12-11T11:32:58;49;45;
49064;PMS5003;34876;51.464;-0.150;2022-12-11T11:35:31;45;42;
49064;PMS5003;34876;51.464;-0.150;2022-12-11T11:38:01;47;43;
49064;PMS5003;34876;51.464;-0.150;2022-12-11T11:40:36;41;41;
49064;PMS5003;34876;51.464;-0.150;2022-12-11T11:43:12;41;39;
49064;PMS5003;34876;51.464;-0.150;2022-12-11T11:45:50;44;42;
49064;PMS5003;34876;51.464;-0.150;2022-12-11T11:48:26;43;42;
49064;PMS5003;34876;51.464;-0.150;2022-12-11T11:51:04;43;41;
49064;PMS5003;34876;51.464;-0.150;2022-12-11T11:53:42;44;39;
49064;PMS5003;34876;51.464;-0.150;2022-12-11T11:56:19;41;35;
49064;PMS5003;34876;51.464;-0.150;2022-12-11T11:58:52;42;40;
49064;PMS5003;34876;51.464;-0.150;2022-12-11T12:01:27;41;41;
49064;PMS5003;34876;51.464;-0.150;2022-12-11T12:03:57;46;40;
49064;PMS5003;34876;51.464;-0.150;2022-12-11T12:06:32;43;41;
49064;PMS5003;34876;51.464;-0.150;2022-12-11T12:09:12;43;41;
49064;PMS5003;34876;51.464;-0.150;2022-12-11T12:11:51;44;42;
49064;PMS5003;34876;51.464;-0.150;2022-12-11T12:14:29;44;43;
49064;PMS5003;34876;51.464;-0.150;2022-12-11T12:17:05;44;42;
49064;PMS5003;34876;51.464;-0.150;2022-12-11T12:19:50;41;38;
49064;PMS5003;34876;51.464;-0.150;2022-12-11T12:22:33;41;40;
49064;PMS5003;34876;51.464;-0.150;2022-12-11T12:25:18;42;41;
49064;PMS5003;34876;51.464;-0.150;2022-12-11T12:27:56;42;41;
49064;PMS5003;34876;51.464;-0.150;2022-12-11T12:30:41;45;44;
49064;PMS5003;34876;51.464;-0.150;2022-12-11T12:33:20;43;40;
49064;PMS5003;34876;51.464;-0.150;2022-12-11T12:36:00;56;51;
49064;PMS5003;34876;51.464;-0.150;2022-12-11T12:38:40;44;42;
49064;PMS5003;34876;51.464;-0.150;2022-12-11T12:41:18;46;42;
49064;PMS5003;34876;51.464;-0.150;2022-12-11T12:43:55;41;38;
49064;PMS5003;34876;51.464;-0.150;2022-12-11T12:46:37;51;45;
49064;PMS5003;34876;51.464;-0.150;2022-12-11T12:49:14;48;41;
49064;PMS5003;34876;51.464;-0.150;2022-12-11T12:51:49;45;43;
49064;PMS5003;34876;51.464;-0.150;2022-12-11T12:54:19;39;39;
49064;PMS5003;34876;51.464;-0.150;2022-12-11T12:56:49;43;40;
49064;PMS5003;34876;51.464;-0.150;2022-12-11T12:59:19;44;44;
49064;PMS5003;34876;51.464;-0.150;2022-12-11T13:01:50;45;42;
49064;PMS5003;34876;51.464;-0.150;2022-12-11T13:04:26;46;42;
49064;PMS5003;34876;51.464;-0.150;2022-12-11T13:07:12;41;41;
49064;PMS5003;34876;51.464;-0.150;2022-12-11T13:09:55;47;45;
49064;PMS5003;34876;51.464;-0.150;2022-12-11T13:12:32;43;42;
49064;PMS5003;34876;51.464;-0.150;2022-12-11T13:15:28;43;41;
49064;PMS5003;34876;51.464;-0.150;2022-12-11T13:18:01;55;47;
49064;PMS5003;34876;51.464;-0.150;2022-12-11T13:20:32;56;49;
49064;PMS5003;34876;51.464;-0.150;2022-12-11T13:23:18;45;42;
49064;PMS5003;34876;51.464;-0.150;2022-12-11T13:25:54;47;42;
49064;PMS5003;34876;51.464;-0.150;2022-12-11T13:28:27;43;43;
49064;PMS5003;34876;51.464;-0.150;2022-12-11T13:31:00;44;38;
49064;PMS5003;34876;51.464;-0.150;2022-12-11T13:33:36;43;40;
49064;PMS5003;34876;51.464;-0.150;2022-12-11T13:36:19;44;41;
49064;PMS5003;34876;51.464;-0.150;2022-12-11T13:38:54;43;40;
49064;PMS5003;34876;51.464;-0.150;2022-12-11T13:41:26;44;43;
49064;PMS5003;34876;51.464;-0.150;2022-12-11T13:43:56;42;42;
49064;PMS5003;34876;51.464;-0.150;2022-12-11T13:46:27;47;42;
49064;PMS5003;34876;51.464;-0.150;2022-12-11T13:49:00;48;40;
49064;PMS5003;34876;51.464;-0.150;2022-12-11T13:51:32;44;42;
49064;PMS5003;34876;51.464;-0.150;2022-12-11T13:54:04;50;45;
49064;PMS5003;34876;51.464;-0.150;2022-12-11T13:56:40;48;44;
49064;PMS5003;34876;51.464;-0.150;2022-12-11T13:59:22;54;51;
49064;PMS5003;34876;51.464;-0.150;2022-12-11T14:01:54;43;40;
49064;PMS5003;34876;51.464;-0.150;2022-12-11T14:04:25;47;46;
49064;PMS5003;34876;51.464;-0.150;2022-12-11T14:06:55;38;37;
49064;PMS5003;34876;51.464;-0.150;2022-12-11T14:09:26;44;42;
49064;PMS5003;34876;51.464;-0.150;2022-12-11T14:11:56;45;43;
49064;PMS5003;34876;51.464;-0.150;2022-12-11T14:14:27;44;43;
49064;PMS5003;34876;51.464;-0.150;2022-12-11T14:17:09;44;41;
49064;PMS5003;34876;51.464;-0.150;2022-12-11T14:19:44;42;39;
49064;PMS5003;34876;51.464;-0.150;2022-12-11T14:22:16;45;43;
49064;PMS5003;34876;51.464;-0.150;2022-12-11T14:24:47;44;42;
49064;PMS5003;34876;51.464;-0.150;2022-12-11T14:27:17;45;44;
49064;PMS5003;34876;51.464;-0.150;2022-12-11T14:29:47;51;45;
49064;PMS5003;34876;51.464;-0.150;2022-12-11T14:32:17;44;44;
49064;PMS5003;34876;51.464;-0.150;2022-12-11T14:34:51;52;48;
49064;PMS5003;34876;51.464;-0.150;2022-12-11T14:37:23;41;40;
49064;PMS5003;34876;51.464;-0.150;2022-12-11T14:39:55;47;44;
49064;PMS5003;34876;51.464;-0.150;2022-12-11T14:42:26;47;45;
49064;PMS5003;34876;51.464;-0.150;2022-12-11T14:44:59;45;42;
49064;PMS5003;34876;51.464;-0.150;2022-12-11T14:47:36;53;51;
49064;PMS5003;34876;51.464;-0.150;2022-12-11T14:50:11;46;43;
49064;PMS5003;34876;51.464;-0.150;2022-12-11T14:52:47;48;45;
49064;PMS5003;34876;51.464;-0.150;2022-12-11T14:55:21;47;42;
49064;PMS5003;34876;51.464;-0.150;2022-12-11T14:57:53;46;45;
49064;PMS5003;34876;51.464;-0.150;2022-12-11T15:00:26;45;44;
49064;PMS5003;34876;51.464;-0.150;2022-12-11T15:02:58;44;42;
49064;PMS5003;34876;51.464;-0.150;2022-12-11T15:05:29;43;41;
49064;PMS5003;34876;51.464;-0.150;2022-12-11T15:08:01;45;44;
49064;PMS5003;34876;51.464;-0.150;2022-12-11T15:10:55;43;41;
49064;PMS5003;34876;51.464;-0.150;2022-12-11T15:13:30;49;45;
49064;PMS5003;34876;51.464;-0.150;2022-12-11T15:16:02;44;44;
49064;PMS5003;34876;51.464;-0.150;2022-12-11T15:18:35;41;41;
49064;PMS5003;34876;51.464;-0.150;2022-12-11T15:21:08;43;40;
49064;PMS5003;34876;51.464;-0.150;2022-12-11T15:23:46;40;40;
49064;PMS5003;34876;51.464;-0.150;2022-12-11T15:26:19;43;41;
49064;PMS5003;34876;51.464;-0.150;2022-12-11T15:29:02;51;46;
49064;PMS5003;34876;51.464;-0.150;2022-12-11T15:31:33;44;44;
49064;PMS5003;34876;51.464;-0.150;2022-12-11T15:34:02;46;41;
49064;PMS5003;34876;51.464;-0.150;2022-12-11T15:36:48;50;48;
49064;PMS5003;34876;51.464;-0.150;2022-12-11T15:39:18;46;42;
49064;PMS5003;34876;51.464;-0.150;2022-12-11T15:41:47;48;46;
49064;PMS5003;34876;51.464;-0.150;2022-12-11T15:44:17;45;45;
49064;PMS5003;34876;51.464;-0.150;2022-12-11T15:46:50;49;42;
49064;PMS5003;34876;51.464;-0.150;2022-12-11T15:49:18;39;37;
49064;PMS5003;34876;51.464;-0.150;2022-12-11T15:51:48;45;39;
49064;PMS5003;34876;51.464;-0.150;2022-12-11T15:54:18;41;39;
49064;PMS5003;34876;51.464;-0.150;2022-12-11T15:56:48;40;40;
49064;PMS5003;34876;51.464;-0.150;2022-12-11T15:59:16;49;48;
49064;PMS5003;34876;51.464;-0.150;2022-12-11T16:01:47;48;44;
49064;PMS5003;34876;51.464;-0.150;2022-12-11T16:04:17;40;40;
49064;PMS5003;34876;51.464;-0.150;2022-12-11T16:06:46;39;39;
49064;PMS5003;34876;51.464;-0.150;2022-12-11T16:09:15;47;46;
49064;PMS5003;34876;51.464;-0.150;2022-12-11T16:11:44;50;44;
49064;PMS5003;34876;51.464;-0.150;2022-12-11T16:14:14;50;46;
49064;PMS5003;34876;51.464;-0.150;2022-12-11T16:16:43;47;44;
49064;PMS5003;34876;51.464;-0.150;2022-12-11T16:19:12;47;44;
49064;PMS5003;34876;51.464;-0.150;2022-12-11T16:21:42;44;44;
49064;PMS5003;34876;51.464;-0.150;2022-12-11T16:24:11;49;45;
49064;PMS5003;34876;51.464;-0.150;2022-12-11T16:26:41;48;47;
49064;PMS5003;34876;51.464;-0.150;2022-12-11T16:29:10;48;47;
49064;PMS5003;34876;51.464;-0.150;2022-12-11T16:31:39;52;46;
49064;PMS5003;34876;51.464;-0.150;2022-12-11T16:34:08;47;44;
49064;PMS5003;34876;51.464;-0.150;2022-12-11T16:36:38;47;45;